Al Udeid, Qatar

2:28 PM AST on September 23, 2014 (GMT +0300)
Al Waab | Change Station
CLOSE
Current Station
Personal Weather Station
Location: Doha, DOHA
Elevation: 69 ft
Nearby Weather Stations

Elev 69 ft 25.26 °N, 51.46 °E | Updated 13 minutes ago

Partly Cloudy
Partly Cloudy
105.3 °F
Feels Like 118 °F
N
1.6
Wind Variable Wind from North
Gusts 3.8 mph

Today
High -- | Low -- °F
--% Chance of Precip.
Yesterday
High -- | Low -- °F
Precip. -- in
5:23 AM 5:30 PM
Waning Crescent, 1% visible
Pressure 29.68 in
Visibility 6.2 miles
Clouds Few 3000 ft
Heat Index 118 °F
Dew Point 73 °F
Humidity 36%
Rainfall 0.00 in
Snow Depth Not available.
UV 6 out of 12
Pollen Not available.
Air Quality Not available.
Flu Activity Not available.
METAR OTBD 231100Z 06007KT 010V130 9999 FEW030 38/24 Q1005 NOSIG

More Conditions Fewer Conditions

Pressure 29.68 in
Visibility 6.2 miles
Clouds Few 3000 ft
Heat Index 118 °F
Dew Point 73 °F
Humidity 36%
Rainfall 0.00 in
Snow Depth Not available.
UV 6 out of 12
Pollen Not available.
Air Quality Not available.
Flu Activity Not available.
METAR OTBD 231100Z 06007KT 010V130 9999 FEW030 38/24 Q1005 NOSIG

More Conditions Fewer Conditions

10-Day Weather Forecast

Almanac

Astronomy

Sep. 23, 2014 Rise Set
Actual Time 5:23 AM AST 5:30 PM AST
Civil Twilight 5:00 AM AST 5:53 PM AST
Nautical Twilight 4:34 AM AST 6:19 PM AST
Astronomical Twilight 4:07 AM AST 6:46 PM AST
Moon 4:29 AM AST 4:56 PM AST
Length of Visible Light 12h 52m
Length of Day
12h 06m
Tomorrow will be 1m 28s shorter.
Waning Crescent, 1% of the Moon is Illuminated
Today
Waning Crescent
Sep 24
New
Oct 1
First Quarter
Oct 8
Full
Oct 15
Last Quarter

Yesterday's Extremes

Country Highs Country Lows

Community

WunderPhotos

Upload Photos

1,755,645 photos uploaded!

Nearby

Snow Depth

Not available.

Earthquake Activity

City Distance Mag. Time & Date
No recent earthquake activity has been reported nearby.
Minimum magnitude displayed is 2.5.

Coastal Water Temperatures

Place Temperature
No Stations Reporting

Nearby Weather Stations